Buoy 46533

sailwx.info

Track history (hours):
 
Tides and Currents Weather Stations Pressure Air Temp Water Temp Dewpoint Dewpoint Depression Visibility Wind Speed Wind Dir Waves Ship Positions

Drifting buoy 46533

Last reported at 2014-Jul-28 09:20 UTC. Time now 2014-Jul-28 12:29 UTC.
Position N 54°19' E 167°58'.

Barometer 1012.7 mb
Water temperature 10.4 ° C

Date/timePositionNaut miles runAvg speedWind from/ knotsBaromVisibWave heightAir tempDewpointWater temp
2014-Jul-28 09:20N 54°19' E 167°58'0 0.1 1012.7 10.4
2014-Jul-28 08:20N 54°19' E 167°59'1 0.4 1012.5 10.4
2014-Jul-28 06:20N 54°19' E 167°58'2 0.4 1012.8 10.4
2014-Jul-28 02:20N 54°18' E 167°57'1 0.7 1014.0 10.4
2014-Jul-28 01:20N 54°17' E 167°57'0 0.3 1014.2 10.4
2014-Jul-28 00:20N 54°17' E 167°57'1 0.3 1014.3 10.4
2014-Jul-27 19:20N 54°16' E 167°59'0 0.3 1015.1 10.4
2014-Jul-27 18:20N 54°17' E 167°59'1 0.3 1015.1 10.4
2014-Jul-27 16:20N 54°16' E 167°59'1 0.7 1015.5 10.4
2014-Jul-27 15:20N 54°16' E 167°58'0 0.4 1015.8 10.4
2014-Jul-27 14:20N 54°16' E 167°58'4 0.7 1016.4 10.3
2014-Jul-27 09:20N 54°13' E 168°01'0 0.4 1017.9 10.4
2014-Jul-27 08:20N 54°13' E 168°01'1 0.6 1018.0 10.4
2014-Jul-27 06:20N 54°13' E 168°03'0 0.2 1017.9 10.4
2014-Jul-27 04:20N 54°13' E 168°03'1 0.3 1018.0 10.4
2014-Jul-27 02:20N 54°12' E 168°02'1 1.1 1018.9 10.4
2014-Jul-27 01:20N 54°11' E 168°03'0 0.0 1018.9 10.4
2014-Jul-27 00:20N 54°11' E 168°03'1 0.6 1019.2 10.4
2014-Jul-26 22:20N 54°11' E 168°05'2 2.3 1019.6 10.4
2014-Jul-26 21:20N 54°09' E 168°07'0 0.0 1019.5 10.4
2014-Jul-26 20:20N 54°09' E 168°07'1 0.3 1019.6 10.4
2014-Jul-26 18:20N 54°09' E 168°08'0 0.3 1019.3 10.3
2014-Jul-26 17:20N 54°09' E 168°09'1 0.8 1019.3 10.3
2014-Jul-26 16:20N 54°09' E 168°10'0 0.0 1019.2 10.4
2014-Jul-26 15:20N 54°09' E 168°10'1 0.6 1019.5 10.4
2014-Jul-26 14:20N 54°09' E 168°11'1 0.3 1019.7 10.4
2014-Jul-26 11:20N 54°08' E 168°11'1 0.5 1020.3 10.4
2014-Jul-26 08:20N 54°07' E 168°13'2 0.5 1020.5 10.4
2014-Jul-26 05:20N 54°06' E 168°15'2 0.9 1020.7 10.4
2014-Jul-26 03:20N 54°06' E 168°18'2 0.8 1021.5 10.4
2014-Jul-26 01:20N 54°07' E 168°21'0 0.0 1021.9 10.4
2014-Jul-26 00:20N 54°07' E 168°21'0 0.2 1022.0 10.4
2014-Jul-25 22:20N 54°06' E 168°20'2 1.5 1022.9 10.3
2014-Jul-25 21:20N 54°07' E 168°22'0 0.0 1023.3 10.3
2014-Jul-25 20:20N 54°07' E 168°22'0 0.2 1023.6 10.4
2014-Jul-25 18:20N 54°08' E 168°22'1 0.5 1024.0 10.4
2014-Jul-25 17:20N 54°08' E 168°23'0 0.2 1024.3 10.4
2014-Jul-25 16:20N 54°08' E 168°23'1 0.9 1024.7 10.4
2014-Jul-25 15:20N 54°07' E 168°25'0 0.0 1024.8 10.4
2014-Jul-25 13:20N 54°07' E 168°25'0 0.5 1025.9 10.5
2014-Jul-25 12:20N 54°07' E 168°26'2 0.4 1026.2 10.5
2014-Jul-25 08:20N 54°08' E 168°28'2 0.3 1027.2 10.6
2014-Jul-25 03:20N 54°10' E 168°30'0 0.3 1028.1 10.6
2014-Jul-25 02:20N 54°10' E 168°30'1 0.4 1028.6 10.6
2014-Jul-25 00:20N 54°11' E 168°30'1 0.5 1029.1 10.5
2014-Jul-24 23:20N 54°10' E 168°31'1 0.3 1029.2 10.5
2014-Jul-24 19:20N 54°11' E 168°29'0 0.2 1029.7 10.4
2014-Jul-24 17:20N 54°11' E 168°30'1 1.0 1029.5 10.4
2014-Jul-24 16:20N 54°12' E 168°31'1 0.9 1029.6 10.4
2014-Jul-24 15:20N 54°13' E 168°30'3 0.7 1029.5 10.5
2014-Jul-24 10:20N 54°16' E 168°28'1 1.1 1029.5 10.7
2014-Jul-24 09:20N 54°16' E 168°26'1 0.5 1029.1 10.8
2014-Jul-24 07:20N 54°15' E 168°25'1 0.2 1028.6 10.7
2014-Jul-24 03:20N 54°15' E 168°26'1 1.2 1028.7 10.7
2014-Jul-24 02:20N 54°16' E 168°27'0 0.0 1028.9 10.7
2014-Jul-24 01:20N 54°16' E 168°27'3 1.4 1028.8 10.6
2014-Jul-23 23:20N 54°18' E 168°23'1 0.3 1028.6 10.6
2014-Jul-23 21:20N 54°18' E 168°22'1 0.3 1028.5 10.6
2014-Jul-23 17:20N 54°17' E 168°20'0 0.1 1027.2 10.7
2014-Jul-23 16:20N 54°17' E 168°20'2 0.6 1026.8 10.7
2014-Jul-23 13:20N 54°18' E 168°18'1 0.3 1026.9 10.8
2014-Jul-23 08:20N 54°17' E 168°16'0 0.0 1025.8 10.9
2014-Jul-23 07:20N 54°17' E 168°16'1 1.2 1025.6 10.9
2014-Jul-23 06:20N 54°16' E 168°18'0 0.2 1025.6 11.0
2014-Jul-23 04:20N 54°16' E 168°17'1 0.4 1025.7 10.9
2014-Jul-23 01:20N 54°17' E 168°17'2 0.8 1025.4 10.8
2014-Jul-22 23:20N 54°17' E 168°14'2 1.0 1025.1 10.8
2014-Jul-22 21:20N 54°15' E 168°14'1 0.2 1024.7 10.6
2014-Jul-22 18:20N 54°15' E 168°15'0 0.1 1023.7 10.5
2014-Jul-22 16:20N 54°15' E 168°15'1 1.4 1023.2 10.6
2014-Jul-22 15:20N 54°16' E 168°14'1 0.3 1022.9 10.6
2014-Jul-22 13:20N 54°15' E 168°14'1 0.3 1022.6 10.7
2014-Jul-22 10:20N 54°15' E 168°13'0 0.2 1022.4 10.7
2014-Jul-22 09:20N 54°15' E 168°13'1 0.2 1022.1 10.7
2014-Jul-22 03:20N 54°14' E 168°15'0 0.0 1020.8 10.6
2014-Jul-22 02:20N 54°14' E 168°15'0 0.0 1020.6 10.6
2014-Jul-22 01:20N 54°14' E 168°15'1 0.6 1020.8 10.6
2014-Jul-22 00:20N 54°15' E 168°14'2 0.9 1020.5 10.5
2014-Jul-21 22:20N 54°13' E 168°14'0 0.0 1020.3 10.4
2014-Jul-21 21:20N 54°13' E 168°14'1 0.3 1020.0 10.4
2014-Jul-21 18:20N 54°12' E 168°15'0 0.4 1019.3 10.5
2014-Jul-21 17:20N 54°12' E 168°15'0 0.4 1019.0 10.5
2014-Jul-21 16:20N 54°13' E 168°15'1 0.6 1018.8 10.5
2014-Jul-21 15:20N 54°13' E 168°16'0 0.1 1018.9 10.5
2014-Jul-21 14:20N 54°13' E 168°16'1 0.2 1018.8 10.6
2014-Jul-21 10:20N 54°14' E 168°15'1 0.6 1018.5 10.8
2014-Jul-21 09:20N 54°13' E 168°14'1 0.4 1018.6 10.8
2014-Jul-21 07:20N 54°12' E 168°14'2 0.5 1018.1 10.8
2014-Jul-21 04:20N 54°12' E 168°16'0 0.2 1018.6 10.8
2014-Jul-21 03:20N 54°12' E 168°16'0 0.5 1018.9 10.7
2014-Jul-21 02:20N 54°12' E 168°16'1 0.8 1019.1 10.6
2014-Jul-21 01:20N 54°12' E 168°17'0 0.3 1019.1 10.4
2014-Jul-21 00:20N 54°12' E 168°17'1 0.4 1019.4 10.4
2014-Jul-20 22:20N 54°12' E 168°15'1 0.7 1019.8 10.3
2014-Jul-20 21:20N 54°12' E 168°15'1 0.4 1019.9 10.3
2014-Jul-20 18:20N 54°10' E 168°15'0 0.0 1020.0 10.2
2014-Jul-20 17:20N 54°10' E 168°15'0 0.3 1020.0 10.2
2014-Jul-20 16:20N 54°10' E 168°16'0 0.5 1019.9 10.2
2014-Jul-20 15:20N 54°10' E 168°16'0 0.1 1020.2 10.2
2014-Jul-20 14:20N 54°10' E 168°16'1 0.4 1020.3 10.2
2014-Jul-20 12:20N 54°11' E 168°17'1 0.2 1020.7 10.3
2014-Jul-20 09:20N 54°11' E 168°16'1 0.4 1020.6 10.4
2014-Jul-20 07:20N 54°10' E 168°15'2 0.6 1020.3 10.3
2014-Jul-20 04:20N 54°09' E 168°17'1 0.8 1020.9 10.4
2014-Jul-20 03:20N 54°09' E 168°16'1 0.3 1021.2 10.3
2014-Jul-20 00:20N 54°09' E 168°17'1 0.6 1021.9 10.2
2014-Jul-19 23:20N 54°09' E 168°17'1 0.5 1022.2 10.2
2014-Jul-19 22:20N 54°09' E 168°17'1 0.2 1022.2 10.1
2014-Jul-19 19:20N 54°08' E 168°16'1 0.3 1022.2 10.1
2014-Jul-19 15:20N 54°07' E 168°16'2 0.5 1021.9 10.1
2014-Jul-19 12:20N 54°07' E 168°19'0 0.1 1022.4 10.2
2014-Jul-19 09:20N 54°07' E 168°19'2 0.6 1022.6 10.2
2014-Jul-19 06:20N 54°05' E 168°18'0 0.0 1022.5 10.2
2014-Jul-19 04:20N 54°05' E 168°18'1 0.5 1023.0 10.2
2014-Jul-19 01:20N 54°05' E 168°20'0 0.0 1023.8 10.0
2014-Jul-19 00:20N 54°05' E 168°20'1 0.3 1024.0 10.0
2014-Jul-18 22:20N 54°05' E 168°21'0 0.1 1023.9 10.0
2014-Jul-18 20:20N 54°05' E 168°20'0 0.0 1024.1 9.9
2014-Jul-18 19:20N 54°05' E 168°20'0 0.2 1023.9 9.8
2014-Jul-18 18:20N 54°05' E 168°20'0 0.2 1023.8 9.8
2014-Jul-18 16:20N 54°05' E 168°20'0 0.3 1023.4 9.8
2014-Jul-18 15:20N 54°04' E 168°20'1 0.7 1023.5 9.8
2014-Jul-18 14:20N 54°04' E 168°21'1 0.1 1023.4 9.9
2014-Jul-18 09:20N 54°04' E 168°22'   1023.6 9.9
Track history (hours):
 
Tides and Currents Weather Stations Pressure Air Temp Water Temp Dewpoint Dewpoint Depression Visibility Wind Speed Wind Dir Waves Ship Positions

Drifting buoy 46533

Last reported at 2014-Jul-28 09:20 UTC. Time now 2014-Jul-28 12:29 UTC.
Position N 54°19' E 167°58'.

Barometer 1012.7 mb
Water temperature 10.4 ° C

Date/timePositionNaut miles runAvg speedWind from/ knotsBaromVisibWave heightAir tempDewpointWater temp
2014-Jul-28 09:20N 54°19' E 167°58'0 0.1 1012.7 10.4
2014-Jul-28 08:20N 54°19' E 167°59'1 0.4 1012.5 10.4
2014-Jul-28 06:20N 54°19' E 167°58'2 0.4 1012.8 10.4
2014-Jul-28 02:20N 54°18' E 167°57'1 0.7 1014.0 10.4
2014-Jul-28 01:20N 54°17' E 167°57'0 0.3 1014.2 10.4
2014-Jul-28 00:20N 54°17' E 167°57'1 0.3 1014.3 10.4
2014-Jul-27 19:20N 54°16' E 167°59'0 0.3 1015.1 10.4
2014-Jul-27 18:20N 54°17' E 167°59'1 0.3 1015.1 10.4
2014-Jul-27 16:20N 54°16' E 167°59'1 0.7 1015.5 10.4
2014-Jul-27 15:20N 54°16' E 167°58'0 0.4 1015.8 10.4
2014-Jul-27 14:20N 54°16' E 167°58'4 0.7 1016.4 10.3
2014-Jul-27 09:20N 54°13' E 168°01'0 0.4 1017.9 10.4
2014-Jul-27 08:20N 54°13' E 168°01'1 0.6 1018.0 10.4
2014-Jul-27 06:20N 54°13' E 168°03'0 0.2 1017.9 10.4
2014-Jul-27 04:20N 54°13' E 168°03'1 0.3 1018.0 10.4
2014-Jul-27 02:20N 54°12' E 168°02'1 1.1 1018.9 10.4
2014-Jul-27 01:20N 54°11' E 168°03'0 0.0 1018.9 10.4
2014-Jul-27 00:20N 54°11' E 168°03'1 0.6 1019.2 10.4
2014-Jul-26 22:20N 54°11' E 168°05'2 2.3 1019.6 10.4
2014-Jul-26 21:20N 54°09' E 168°07'0 0.0 1019.5 10.4
2014-Jul-26 20:20N 54°09' E 168°07'1 0.3 1019.6 10.4
2014-Jul-26 18:20N 54°09' E 168°08'0 0.3 1019.3 10.3
2014-Jul-26 17:20N 54°09' E 168°09'1 0.8 1019.3 10.3
2014-Jul-26 16:20N 54°09' E 168°10'0 0.0 1019.2 10.4
2014-Jul-26 15:20N 54°09' E 168°10'1 0.6 1019.5 10.4
2014-Jul-26 14:20N 54°09' E 168°11'1 0.3 1019.7 10.4
2014-Jul-26 11:20N 54°08' E 168°11'1 0.5 1020.3 10.4
2014-Jul-26 08:20N 54°07' E 168°13'2 0.5 1020.5 10.4
2014-Jul-26 05:20N 54°06' E 168°15'2 0.9 1020.7 10.4
2014-Jul-26 03:20N 54°06' E 168°18'2 0.8 1021.5 10.4
2014-Jul-26 01:20N 54°07' E 168°21'0 0.0 1021.9 10.4
2014-Jul-26 00:20N 54°07' E 168°21'0 0.2 1022.0 10.4
2014-Jul-25 22:20N 54°06' E 168°20'2 1.5 1022.9 10.3
2014-Jul-25 21:20N 54°07' E 168°22'0 0.0 1023.3 10.3
2014-Jul-25 20:20N 54°07' E 168°22'0 0.2 1023.6 10.4
2014-Jul-25 18:20N 54°08' E 168°22'1 0.5 1024.0 10.4
2014-Jul-25 17:20N 54°08' E 168°23'0 0.2 1024.3 10.4
2014-Jul-25 16:20N 54°08' E 168°23'1 0.9 1024.7 10.4
2014-Jul-25 15:20N 54°07' E 168°25'0 0.0 1024.8 10.4
2014-Jul-25 13:20N 54°07' E 168°25'0 0.5 1025.9 10.5
2014-Jul-25 12:20N 54°07' E 168°26'2 0.4 1026.2 10.5
2014-Jul-25 08:20N 54°08' E 168°28'2 0.3 1027.2 10.6
2014-Jul-25 03:20N 54°10' E 168°30'0 0.3 1028.1 10.6
2014-Jul-25 02:20N 54°10' E 168°30'1 0.4 1028.6 10.6
2014-Jul-25 00:20N 54°11' E 168°30'1 0.5 1029.1 10.5
2014-Jul-24 23:20N 54°10' E 168°31'1 0.3 1029.2 10.5
2014-Jul-24 19:20N 54°11' E 168°29'0 0.2 1029.7 10.4
2014-Jul-24 17:20N 54°11' E 168°30'1 1.0 1029.5 10.4
2014-Jul-24 16:20N 54°12' E 168°31'1 0.9 1029.6 10.4
2014-Jul-24 15:20N 54°13' E 168°30'3 0.7 1029.5 10.5
2014-Jul-24 10:20N 54°16' E 168°28'1 1.1 1029.5 10.7
2014-Jul-24 09:20N 54°16' E 168°26'1 0.5 1029.1 10.8
2014-Jul-24 07:20N 54°15' E 168°25'1 0.2 1028.6 10.7
2014-Jul-24 03:20N 54°15' E 168°26'1 1.2 1028.7 10.7
2014-Jul-24 02:20N 54°16' E 168°27'0 0.0 1028.9 10.7
2014-Jul-24 01:20N 54°16' E 168°27'3 1.4 1028.8 10.6
2014-Jul-23 23:20N 54°18' E 168°23'1 0.3 1028.6 10.6
2014-Jul-23 21:20N 54°18' E 168°22'1 0.3 1028.5 10.6
2014-Jul-23 17:20N 54°17' E 168°20'0 0.1 1027.2 10.7
2014-Jul-23 16:20N 54°17' E 168°20'2 0.6 1026.8 10.7
2014-Jul-23 13:20N 54°18' E 168°18'1 0.3 1026.9 10.8
2014-Jul-23 08:20N 54°17' E 168°16'0 0.0 1025.8 10.9
2014-Jul-23 07:20N 54°17' E 168°16'1 1.2 1025.6 10.9
2014-Jul-23 06:20N 54°16' E 168°18'0 0.2 1025.6 11.0
2014-Jul-23 04:20N 54°16' E 168°17'1 0.4 1025.7 10.9
2014-Jul-23 01:20N 54°17' E 168°17'2 0.8 1025.4 10.8
2014-Jul-22 23:20N 54°17' E 168°14'2 1.0 1025.1 10.8
2014-Jul-22 21:20N 54°15' E 168°14'1 0.2 1024.7 10.6
2014-Jul-22 18:20N 54°15' E 168°15'0 0.1 1023.7 10.5
2014-Jul-22 16:20N 54°15' E 168°15'1 1.4 1023.2 10.6
2014-Jul-22 15:20N 54°16' E 168°14'1 0.3 1022.9 10.6
2014-Jul-22 13:20N 54°15' E 168°14'1 0.3 1022.6 10.7
2014-Jul-22 10:20N 54°15' E 168°13'0 0.2 1022.4 10.7
2014-Jul-22 09:20N 54°15' E 168°13'1 0.2 1022.1 10.7
2014-Jul-22 03:20N 54°14' E 168°15'0 0.0 1020.8 10.6
2014-Jul-22 02:20N 54°14' E 168°15'0 0.0 1020.6 10.6
2014-Jul-22 01:20N 54°14' E 168°15'1 0.6 1020.8 10.6
2014-Jul-22 00:20N 54°15' E 168°14'2 0.9 1020.5 10.5
2014-Jul-21 22:20N 54°13' E 168°14'0 0.0 1020.3 10.4
2014-Jul-21 21:20N 54°13' E 168°14'1 0.3 1020.0 10.4
2014-Jul-21 18:20N 54°12' E 168°15'0 0.4 1019.3 10.5
2014-Jul-21 17:20N 54°12' E 168°15'0 0.4 1019.0 10.5
2014-Jul-21 16:20N 54°13' E 168°15'1 0.6 1018.8 10.5
2014-Jul-21 15:20N 54°13' E 168°16'0 0.1 1018.9 10.5
2014-Jul-21 14:20N 54°13' E 168°16'1 0.2 1018.8 10.6
2014-Jul-21 10:20N 54°14' E 168°15'1 0.6 1018.5 10.8
2014-Jul-21 09:20N 54°13' E 168°14'1 0.4 1018.6 10.8
2014-Jul-21 07:20N 54°12' E 168°14'2 0.5 1018.1 10.8
2014-Jul-21 04:20N 54°12' E 168°16'0 0.2 1018.6 10.8
2014-Jul-21 03:20N 54°12' E 168°16'0 0.5 1018.9 10.7
2014-Jul-21 02:20N 54°12' E 168°16'1 0.8 1019.1 10.6
2014-Jul-21 01:20N 54°12' E 168°17'0 0.3 1019.1 10.4
2014-Jul-21 00:20N 54°12' E 168°17'1 0.4 1019.4 10.4
2014-Jul-20 22:20N 54°12' E 168°15'1 0.7 1019.8 10.3
2014-Jul-20 21:20N 54°12' E 168°15'1 0.4 1019.9 10.3
2014-Jul-20 18:20N 54°10' E 168°15'0 0.0 1020.0 10.2
2014-Jul-20 17:20N 54°10' E 168°15'0 0.3 1020.0 10.2
2014-Jul-20 16:20N 54°10' E 168°16'0 0.5 1019.9 10.2
2014-Jul-20 15:20N 54°10' E 168°16'0 0.1 1020.2 10.2
2014-Jul-20 14:20N 54°10' E 168°16'1 0.4 1020.3 10.2
2014-Jul-20 12:20N 54°11' E 168°17'1 0.2 1020.7 10.3
2014-Jul-20 09:20N 54°11' E 168°16'1 0.4 1020.6 10.4
2014-Jul-20 07:20N 54°10' E 168°15'2 0.6 1020.3 10.3
2014-Jul-20 04:20N 54°09' E 168°17'1 0.8 1020.9 10.4
2014-Jul-20 03:20N 54°09' E 168°16'1 0.3 1021.2 10.3
2014-Jul-20 00:20N 54°09' E 168°17'1 0.6 1021.9 10.2
2014-Jul-19 23:20N 54°09' E 168°17'1 0.5 1022.2 10.2
2014-Jul-19 22:20N 54°09' E 168°17'1 0.2 1022.2 10.1
2014-Jul-19 19:20N 54°08' E 168°16'1 0.3 1022.2 10.1
2014-Jul-19 15:20N 54°07' E 168°16'2 0.5 1021.9 10.1
2014-Jul-19 12:20N 54°07' E 168°19'0 0.1 1022.4 10.2
2014-Jul-19 09:20N 54°07' E 168°19'2 0.6 1022.6 10.2
2014-Jul-19 06:20N 54°05' E 168°18'0 0.0 1022.5 10.2
2014-Jul-19 04:20N 54°05' E 168°18'1 0.5 1023.0 10.2
2014-Jul-19 01:20N 54°05' E 168°20'0 0.0 1023.8 10.0
2014-Jul-19 00:20N 54°05' E 168°20'1 0.3 1024.0 10.0
2014-Jul-18 22:20N 54°05' E 168°21'0 0.1 1023.9 10.0
2014-Jul-18 20:20N 54°05' E 168°20'0 0.0 1024.1 9.9
2014-Jul-18 19:20N 54°05' E 168°20'0 0.2 1023.9 9.8
2014-Jul-18 18:20N 54°05' E 168°20'0 0.2 1023.8 9.8
2014-Jul-18 16:20N 54°05' E 168°20'0 0.3 1023.4 9.8
2014-Jul-18 15:20N 54°04' E 168°20'1 0.7 1023.5 9.8
2014-Jul-18 14:20N 54°04' E 168°21'1 0.1 1023.4 9.9
2014-Jul-18 09:20N 54°04' E 168°22'   1023.6 9.9

Dump ship's entire track history